Terminal Aerodrome Forecast
Issued by NWS Cleveland, OH

Home | Current Version | Previous Version | Graphics & Text | Print | Product List | Glossary On
Versions: 1 2 3 4 5 6 7 8 9 10 11 12 13 14 15 16 17 18 19 20 21 22 23 24 25
197
FTUS41 KCLE 280855 AAA
TAFTOL
TAF AMD
KTOL 280855Z 2809/2906 VRB03KT P6SM SCT100 OVC250
     FM281100 12004KT P6SM VCSH SCT035 OVC050
     FM281600 09006KT 6SM BR VCSH BKN015 OVC025
      TEMPO 2818/2822 4SM -RA BR SCT008 OVC012
     FM290100 05005KT P6SM SCT015 OVC025
     FM290500 03005KT 6SM BR SCT025 OVC035=

USA.gov is the U.S. government's official web portal to all federal, state and local government web resources and services.